createdAt,value
2023-05-10T00:02:09.994Z,13.48
2023-05-10T00:05:11.528Z,13.45
2023-05-10T00:08:12.996Z,13.43
2023-05-10T00:11:14.450Z,13.49
2023-05-10T00:14:15.894Z,13.52
2023-05-10T00:17:17.379Z,13.30
2023-05-10T00:20:19.119Z,13.32
2023-05-10T00:23:20.924Z,13.40
2023-05-10T00:26:22.299Z,13.51
2023-05-10T00:29:28.933Z,13.29
2023-05-10T00:32:30.611Z,13.04
2023-05-10T00:35:32.167Z,12.68
2023-05-10T00:38:34.030Z,12.76
2023-05-10T00:41:35.437Z,13.05
2023-05-10T00:44:38.314Z,13.23
2023-05-10T00:47:41.440Z,12.97
2023-05-10T00:50:43.187Z,12.93
2023-05-10T00:53:46.280Z,12.54
2023-05-10T00:56:49.946Z,12.55
2023-05-10T00:59:51.596Z,12.59
2023-05-10T01:02:54.884Z,12.40
2023-05-10T01:05:57.643Z,12.28
2023-05-10T01:08:59.749Z,12.34
2023-05-10T01:12:02.546Z,12.29
2023-05-10T01:15:06.047Z,12.20
2023-05-10T01:18:10.034Z,12.03
2023-05-10T01:21:32.986Z,11.97
2023-05-10T01:25:08.820Z,12.27
2023-05-10T01:28:18.853Z,12.18
2023-05-10T01:31:43.009Z,12.03
2023-05-10T01:35:11.405Z,12.23
2023-05-10T01:38:41.140Z,12.45
2023-05-10T01:42:08.916Z,12.15
2023-05-10T01:45:22.349Z,12.02
2023-05-10T01:48:24.100Z,12.16
2023-05-10T01:51:28.570Z,12.42
2023-05-10T01:54:31.455Z,12.75
2023-05-10T01:57:41.548Z,12.81
2023-05-10T02:00:48.306Z,12.90
2023-05-10T02:03:52.383Z,12.92
2023-05-10T02:06:56.408Z,12.94
2023-05-10T02:09:59.290Z,12.84
2023-05-10T02:13:02.730Z,12.68
2023-05-10T02:16:06.561Z,12.77
2023-05-10T02:19:09.676Z,12.84
2023-05-10T02:22:12.573Z,12.83
2023-05-10T02:25:14.920Z,12.79
2023-05-10T02:28:18.060Z,12.83
2023-05-10T02:31:20.512Z,12.86
2023-05-10T02:34:27.439Z,12.86
2023-05-10T02:37:29.757Z,12.61
2023-05-10T02:40:32.380Z,12.68
2023-05-10T02:43:34.998Z,12.72
2023-05-10T02:46:38.059Z,12.74
2023-05-10T02:49:39.858Z,12.74
2023-05-10T02:52:48.620Z,12.76
2023-05-10T02:55:52.947Z,12.77
2023-05-10T02:58:54.426Z,12.81
2023-05-10T03:01:55.975Z,12.79
2023-05-10T03:04:58.064Z,12.79
2023-05-10T03:08:01.568Z,12.72
2023-05-10T03:11:28.828Z,12.58
2023-05-10T03:14:58.760Z,12.66
2023-05-10T03:18:09.077Z,12.60
2023-05-10T03:21:13.430Z,12.47
2023-05-10T03:24:19.189Z,12.49
2023-05-10T03:27:24.564Z,12.46
2023-05-10T03:30:27.183Z,12.48
2023-05-10T03:33:28.647Z,12.41
2023-05-10T03:36:30.245Z,12.39
2023-05-10T03:39:31.829Z,12.43
2023-05-10T03:42:34.787Z,12.46
2023-05-10T03:45:36.483Z,12.42
2023-05-10T03:48:38.175Z,12.34
2023-05-10T03:51:40.504Z,12.37
2023-05-10T03:54:42.343Z,12.38
2023-05-10T03:57:43.884Z,12.31
2023-05-10T04:00:46.143Z,12.25
2023-05-10T04:03:48.962Z,12.32
2023-05-10T04:06:50.676Z,12.35
2023-05-10T04:09:52.083Z,12.37
2023-05-10T04:12:53.774Z,12.27
2023-05-10T04:15:55.332Z,12.41
2023-05-10T04:18:56.845Z,12.32
2023-05-10T04:21:58.919Z,12.40
2023-05-10T04:25:00.445Z,12.35
2023-05-10T04:28:01.892Z,12.32
2023-05-10T04:31:08.554Z,12.33
2023-05-10T04:34:10.010Z,12.33
2023-05-10T04:37:11.409Z,12.40
2023-05-10T04:40:13.194Z,12.36
2023-05-10T04:43:14.856Z,12.22
2023-05-10T04:46:16.245Z,12.19
2023-05-10T04:49:18.724Z,12.21
2023-05-10T04:52:20.276Z,12.27
2023-05-10T04:55:22.020Z,12.38
2023-05-10T04:58:23.584Z,12.47
2023-05-10T05:01:25.049Z,12.51
2023-05-10T05:04:26.806Z,12.52
2023-05-10T05:07:28.344Z,12.52
2023-05-10T05:10:29.770Z,12.57
2023-05-10T05:13:31.157Z,12.53
2023-05-10T05:16:33.318Z,12.56
2023-05-10T05:19:34.894Z,12.61
2023-05-10T05:22:37.750Z,12.64
2023-05-10T05:25:39.539Z,12.50
2023-05-10T05:28:40.978Z,12.56
2023-05-10T05:31:42.528Z,12.68
2023-05-10T05:34:46.228Z,12.63
2023-05-10T05:37:47.668Z,12.69
2023-05-10T05:40:49.102Z,12.65
2023-05-10T05:43:50.534Z,12.62
2023-05-10T05:46:52.021Z,12.57
2023-05-10T05:49:53.453Z,12.32
2023-05-10T05:52:55.147Z,12.58
2023-05-10T05:55:58.854Z,12.79
2023-05-10T05:59:00.285Z,12.72
2023-05-10T06:02:01.846Z,12.80
2023-05-10T06:05:03.531Z,12.81
2023-05-10T06:08:05.185Z,12.78
2023-05-10T06:11:06.595Z,12.82
2023-05-10T06:14:08.912Z,13.00
2023-05-10T06:17:10.433Z,12.99
2023-05-10T06:20:12.615Z,12.95
2023-05-10T06:23:14.043Z,13.03
2023-05-10T06:26:15.576Z,13.05
2023-05-10T06:29:17.197Z,13.03
2023-05-10T06:32:18.803Z,12.89
2023-05-10T06:35:20.353Z,13.01
2023-05-10T06:38:21.803Z,12.91
2023-05-10T06:41:24.806Z,13.05
2023-05-10T06:44:26.456Z,13.15
2023-05-10T06:47:28.097Z,13.08
2023-05-10T06:50:29.744Z,13.13
2023-05-10T06:53:31.288Z,12.95
2023-05-10T06:56:32.705Z,12.94
2023-05-10T06:59:34.153Z,12.98
2023-05-10T07:02:35.776Z,12.82
2023-05-10T07:05:37.446Z,13.07
2023-05-10T07:08:39.091Z,13.12
2023-05-10T07:11:40.606Z,13.26
2023-05-10T07:14:43.010Z,13.31
2023-05-10T07:17:45.889Z,13.28
2023-05-10T07:20:47.874Z,13.34
2023-05-10T07:23:49.330Z,13.35
2023-05-10T07:26:50.899Z,13.53
2023-05-10T07:29:52.433Z,13.55
2023-05-10T07:32:53.988Z,13.67
2023-05-10T07:35:58.589Z,13.64
2023-05-10T07:39:00.495Z,13.73
2023-05-10T07:42:01.978Z,13.66
2023-05-10T07:45:03.580Z,13.69
2023-05-10T07:48:05.128Z,13.78
2023-05-10T07:51:08.074Z,13.88
2023-05-10T07:54:09.564Z,13.86
2023-05-10T07:57:11.308Z,13.89
2023-05-10T08:00:14.455Z,13.82
2023-05-10T08:03:16.700Z,13.80
2023-05-10T08:06:19.509Z,13.87
2023-05-10T08:09:24.549Z,13.81
2023-05-10T08:12:26.056Z,13.68
2023-05-10T08:15:27.718Z,13.80
2023-05-10T08:18:29.494Z,13.92
2023-05-10T08:21:32.155Z,13.93
2023-05-10T08:24:35.597Z,13.99
2023-05-10T08:27:37.047Z,14.15
2023-05-10T08:30:38.481Z,13.95
2023-05-10T08:33:41.527Z,13.98
2023-05-10T08:36:43.825Z,14.14
2023-05-10T08:39:46.715Z,14.25
2023-05-10T08:42:56.291Z,14.07
2023-05-10T08:46:01.564Z,13.94
2023-05-10T08:49:05.207Z,14.11
2023-05-10T08:52:08.244Z,14.18
2023-05-10T08:55:10.420Z,14.07
2023-05-10T08:58:11.947Z,14.18
2023-05-10T09:01:15.301Z,14.24
2023-05-10T09:04:16.984Z,14.38
2023-05-10T09:07:19.377Z,14.52
2023-05-10T09:10:21.540Z,14.52
2023-05-10T09:13:24.827Z,14.41
2023-05-10T09:16:26.335Z,14.57
2023-05-10T09:19:28.964Z,14.56
2023-05-10T09:22:34.639Z,14.57
2023-05-10T09:25:36.622Z,14.87
2023-05-10T09:28:56.361Z,15.04
2023-05-10T09:31:58.065Z,15.15
2023-05-10T09:35:07.790Z,15.34
2023-05-10T09:38:09.517Z,15.22
2023-05-10T09:41:18.317Z,15.09
2023-05-10T09:44:20.477Z,15.05
2023-05-10T09:47:21.948Z,14.99
2023-05-10T09:50:24.037Z,15.17
2023-05-10T09:53:25.456Z,14.94
2023-05-10T09:56:41.210Z,14.84
2023-05-10T09:59:44.277Z,14.94
2023-05-10T10:02:47.887Z,15.00
2023-05-10T10:05:49.865Z,14.87
2023-05-10T10:08:56.784Z,14.85
2023-05-10T10:11:58.595Z,14.64
2023-05-10T10:15:02.143Z,14.91
2023-05-10T10:18:05.176Z,15.03
2023-05-10T10:21:09.227Z,15.14
2023-05-10T10:24:10.773Z,14.81
2023-05-10T10:27:20.489Z,15.14
2023-05-10T10:30:31.095Z,15.22
2023-05-10T10:33:50.634Z,15.25
2023-05-10T10:36:52.155Z,15.31
2023-05-10T10:39:56.296Z,15.30
2023-05-10T10:42:59.261Z,15.66
2023-05-10T10:46:15.286Z,15.72
2023-05-10T10:49:18.136Z,15.71
2023-05-10T10:52:29.322Z,15.59
2023-05-10T10:55:31.245Z,15.71
2023-05-10T10:58:32.898Z,15.71
2023-05-10T11:01:36.183Z,15.72
2023-05-10T11:04:47.233Z,15.73
2023-05-10T11:07:56.617Z,15.75
2023-05-10T11:11:01.106Z,15.29
2023-05-10T11:14:07.164Z,14.07
2023-05-10T11:17:28.410Z,14.12
2023-05-10T11:20:39.952Z,13.80
2023-05-10T11:23:44.369Z,13.52
2023-05-10T11:26:45.914Z,13.27
2023-05-10T11:29:47.326Z,13.09
2023-05-10T11:32:48.892Z,13.16
2023-05-10T11:35:50.376Z,13.20
2023-05-10T11:38:51.820Z,13.23
2023-05-10T11:41:53.278Z,13.17
2023-05-10T11:44:55.356Z,13.21
2023-05-10T11:47:58.361Z,13.46
2023-05-10T11:50:59.913Z,13.55
2023-05-10T11:54:01.348Z,13.59
2023-05-10T11:57:03.146Z,13.65
2023-05-10T12:00:05.429Z,13.59
2023-05-10T12:03:09.638Z,13.50
2023-05-10T12:06:11.115Z,13.64
2023-05-10T12:09:12.589Z,13.84
2023-05-10T12:12:18.243Z,14.13
2023-05-10T12:15:20.605Z,14.01
2023-05-10T12:18:25.944Z,14.18
2023-05-10T12:21:29.612Z,14.24
2023-05-10T12:24:31.084Z,14.28
2023-05-10T12:27:33.186Z,14.31
2023-05-10T12:30:36.659Z,14.35
2023-05-10T12:33:43.928Z,14.23
2023-05-10T12:36:45.759Z,14.24
2023-05-10T12:39:48.455Z,14.28
2023-05-10T12:42:50.176Z,14.35
2023-05-10T12:45:52.066Z,14.37
2023-05-10T12:49:07.882Z,14.27
2023-05-10T12:52:10.249Z,14.34
2023-05-10T12:55:11.861Z,14.49
2023-05-10T12:58:18.014Z,14.52
2023-05-10T13:01:29.242Z,14.58
2023-05-10T13:04:30.763Z,14.62
2023-05-10T13:07:33.411Z,14.79
2023-05-10T13:10:36.390Z,14.94
2023-05-10T13:13:37.830Z,14.92
2023-05-10T13:16:39.298Z,14.66
2023-05-10T13:19:40.728Z,14.81
2023-05-10T13:22:43.480Z,14.96
2023-05-10T13:25:44.957Z,15.13
2023-05-10T13:28:46.936Z,15.23
2023-05-10T13:31:48.530Z,15.32
2023-05-10T13:34:50.061Z,15.43
2023-05-10T13:37:52.129Z,15.31
2023-05-10T13:40:53.915Z,15.27
2023-05-10T13:43:55.620Z,15.31
2023-05-10T13:46:57.723Z,15.36
2023-05-10T13:49:59.325Z,15.34
2023-05-10T13:53:01.076Z,15.32
2023-05-10T13:56:03.691Z,15.37
2023-05-10T13:59:05.132Z,15.30
2023-05-10T14:02:07.398Z,15.23
2023-05-10T14:05:09.028Z,15.39
2023-05-10T14:08:10.897Z,15.34
2023-05-10T14:11:12.525Z,15.35
2023-05-10T14:14:14.995Z,15.36
2023-05-10T14:17:16.477Z,15.40
2023-05-10T14:20:17.945Z,15.35
2023-05-10T14:23:24.764Z,15.38
2023-05-10T14:26:27.301Z,15.43
2023-05-10T14:29:28.754Z,15.04
2023-05-10T14:32:30.281Z,15.26
2023-05-10T14:35:34.480Z,15.43
2023-05-10T14:38:36.075Z,15.55
2023-05-10T14:41:38.040Z,15.52
2023-05-10T14:44:41.941Z,15.56
2023-05-10T14:47:43.529Z,15.55
2023-05-10T14:50:50.902Z,15.64
2023-05-10T14:53:53.722Z,15.61
2023-05-10T14:56:55.232Z,15.53
2023-05-10T14:59:57.468Z,15.30
2023-05-10T15:02:59.547Z,15.44
2023-05-10T15:06:02.607Z,15.39
2023-05-10T15:09:04.682Z,15.12
2023-05-10T15:12:06.239Z,14.61
2023-05-10T15:15:08.505Z,14.77
2023-05-10T15:18:11.309Z,15.03
2023-05-10T15:21:13.001Z,15.13
2023-05-10T15:24:14.455Z,14.78
2023-05-10T15:27:15.930Z,15.19
2023-05-10T15:30:17.486Z,15.45
2023-05-10T15:33:19.042Z,15.46
2023-05-10T15:36:20.636Z,15.51
2023-05-10T15:39:22.078Z,15.51
2023-05-10T15:42:23.534Z,15.28
2023-05-10T15:45:24.969Z,15.36
2023-05-10T15:48:26.471Z,15.46
2023-05-10T15:51:27.957Z,15.58
2023-05-10T15:54:29.695Z,15.60
2023-05-10T15:57:31.165Z,15.51
2023-05-10T16:00:32.689Z,15.40
2023-05-10T16:03:37.266Z,15.45
2023-05-10T16:06:39.886Z,15.35
2023-05-10T16:09:41.470Z,15.35
2023-05-10T16:12:43.049Z,15.36
2023-05-10T16:15:44.532Z,15.38
2023-05-10T16:18:46.097Z,15.30
2023-05-10T16:21:47.868Z,15.26
2023-05-10T16:24:53.483Z,15.19
2023-05-10T16:27:55.661Z,15.15
2023-05-10T16:30:57.416Z,15.27
2023-05-10T16:33:58.858Z,15.35
2023-05-10T16:37:00.705Z,15.30
2023-05-10T16:40:03.445Z,15.32
2023-05-10T16:43:05.049Z,15.07
2023-05-10T16:46:10.888Z,14.71
2023-05-10T16:49:12.368Z,14.84
2023-05-10T16:52:13.860Z,14.58
2023-05-10T16:55:15.470Z,14.42
2023-05-10T16:58:17.145Z,14.36
2023-05-10T17:01:18.645Z,14.25
2023-05-10T17:04:20.309Z,14.29
2023-05-10T17:07:24.122Z,14.49
2023-05-10T17:10:26.989Z,14.59
2023-05-10T17:13:28.915Z,14.47
2023-05-10T17:16:30.792Z,14.35
2023-05-10T17:19:33.239Z,14.35
2023-05-10T17:22:34.733Z,14.26
2023-05-10T17:25:36.666Z,14.28
2023-05-10T17:28:38.192Z,14.21
2023-05-10T17:31:40.520Z,14.15
2023-05-10T17:34:42.273Z,14.11
2023-05-10T17:37:44.747Z,14.10
2023-05-10T17:40:47.261Z,14.04
2023-05-10T17:43:48.647Z,13.99
2023-05-10T17:46:50.073Z,13.97
2023-05-10T17:49:51.618Z,14.00
2023-05-10T17:52:53.044Z,14.00
2023-05-10T17:55:57.860Z,14.00
2023-05-10T17:58:59.336Z,13.94
2023-05-10T18:02:02.018Z,13.76
2023-05-10T18:05:04.237Z,13.63
2023-05-10T18:08:07.204Z,13.52
2023-05-10T18:11:08.786Z,13.34
2023-05-10T18:14:10.248Z,13.24
2023-05-10T18:17:11.748Z,13.15
2023-05-10T18:20:13.216Z,13.10
2023-05-10T18:23:15.333Z,13.05
2023-05-10T18:26:18.087Z,13.19
2023-05-10T18:29:19.751Z,13.04
2023-05-10T18:32:22.894Z,13.01
2023-05-10T18:35:24.528Z,12.78
2023-05-10T18:38:26.364Z,13.02
2023-05-10T18:41:28.018Z,12.73
2023-05-10T18:44:29.500Z,12.37
2023-05-10T18:47:31.083Z,12.50
2023-05-10T18:50:32.670Z,12.67
2023-05-10T18:53:35.314Z,12.95
2023-05-10T18:56:36.949Z,13.07
2023-05-10T18:59:38.555Z,13.16
2023-05-10T19:02:40.470Z,13.13
2023-05-10T19:05:42.010Z,12.89
2023-05-10T19:08:43.712Z,12.69
2023-05-10T19:11:45.467Z,12.46
2023-05-10T19:14:47.105Z,12.22
2023-05-10T19:17:49.314Z,12.60
2023-05-10T19:20:55.771Z,12.86
2023-05-10T19:23:57.605Z,12.63
2023-05-10T19:26:59.094Z,12.70
2023-05-10T19:30:01.727Z,12.55
2023-05-10T19:33:04.391Z,12.65
2023-05-10T19:36:07.241Z,12.57
2023-05-10T19:39:09.091Z,12.61
2023-05-10T19:42:10.633Z,12.45
2023-05-10T19:45:12.272Z,12.48
2023-05-10T19:48:13.785Z,12.54
2023-05-10T19:51:15.326Z,12.55
2023-05-10T19:54:16.803Z,12.61
2023-05-10T19:57:18.386Z,12.55
2023-05-10T20:00:19.901Z,12.62
2023-05-10T20:03:21.276Z,12.51
2023-05-10T20:06:22.788Z,12.50
2023-05-10T20:09:24.245Z,12.50
2023-05-10T20:12:25.710Z,12.50
2023-05-10T20:15:28.889Z,12.45
2023-05-10T20:18:30.481Z,12.43
2023-05-10T20:21:33.373Z,12.42
2023-05-10T20:24:34.994Z,12.40
2023-05-10T20:27:36.933Z,12.43
2023-05-10T20:30:39.143Z,12.42
2023-05-10T20:33:40.731Z,12.33
2023-05-10T20:36:42.370Z,12.27
2023-05-10T20:39:44.533Z,12.28
2023-05-10T20:42:45.979Z,12.30
2023-05-10T20:45:47.731Z,12.40
2023-05-10T20:48:49.619Z,12.37
2023-05-10T20:51:51.145Z,12.20
2023-05-10T20:54:52.595Z,12.17
2023-05-10T20:57:54.151Z,12.24
2023-05-10T21:00:55.720Z,12.28
2023-05-10T21:03:57.493Z,12.31
2023-05-10T21:06:58.966Z,12.24
2023-05-10T21:10:00.425Z,12.18
2023-05-10T21:13:01.923Z,12.12
2023-05-10T21:16:04.345Z,12.23
2023-05-10T21:19:07.079Z,12.16
2023-05-10T21:22:09.132Z,12.22
2023-05-10T21:25:10.796Z,12.22
2023-05-10T21:28:12.453Z,12.22
2023-05-10T21:31:15.964Z,12.19
2023-05-10T21:34:17.947Z,12.16
2023-05-10T21:37:19.614Z,12.16
2023-05-10T21:40:21.268Z,12.14
2023-05-10T21:43:22.763Z,11.95
2023-05-10T21:46:24.310Z,12.11
2023-05-10T21:49:26.023Z,12.15
2023-05-10T21:52:27.395Z,12.13
2023-05-10T21:55:30.002Z,12.03
2023-05-10T21:58:31.477Z,12.09
2023-05-10T22:01:32.916Z,11.94
2023-05-10T22:04:34.799Z,12.07
2023-05-10T22:07:36.336Z,11.98
2023-05-10T22:10:37.917Z,12.01
2023-05-10T22:13:39.353Z,11.91
2023-05-10T22:16:40.944Z,12.02
2023-05-10T22:19:42.749Z,11.99
2023-05-10T22:22:44.991Z,11.97
2023-05-10T22:25:46.365Z,12.07
2023-05-10T22:28:47.974Z,11.97
2023-05-10T22:31:49.584Z,12.06
2023-05-10T22:34:51.011Z,12.00
2023-05-10T22:37:52.490Z,11.77
2023-05-10T22:40:54.021Z,11.95
2023-05-10T22:43:55.479Z,11.79
2023-05-10T22:46:57.034Z,11.83
2023-05-10T22:49:58.821Z,11.86
2023-05-10T22:53:00.314Z,11.77
2023-05-10T22:56:02.230Z,11.65
2023-05-10T22:59:03.646Z,11.73
2023-05-10T23:02:05.209Z,11.82
2023-05-10T23:05:07.672Z,11.96
2023-05-10T23:08:09.249Z,11.77
2023-05-10T23:11:10.930Z,11.81
2023-05-10T23:14:12.394Z,11.62
2023-05-10T23:17:13.813Z,11.82
2023-05-10T23:20:15.861Z,11.96
2023-05-10T23:23:17.677Z,11.92
2023-05-10T23:26:19.099Z,11.93
2023-05-10T23:29:20.502Z,11.76
2023-05-10T23:32:23.235Z,11.82
2023-05-10T23:35:24.749Z,11.79
2023-05-10T23:38:26.933Z,11.29
2023-05-10T23:41:28.363Z,11.49
2023-05-10T23:44:29.753Z,11.74
2023-05-10T23:47:31.702Z,11.67
2023-05-10T23:50:34.335Z,11.82
2023-05-10T23:53:35.780Z,11.76
2023-05-10T23:56:37.407Z,11.72
2023-05-10T23:59:38.857Z,11.66
